Time;durP1;ratioP1;P1;durP2;ratioP2;P2;SDS_P1;SDS_P2;PMS_P1;PMS_P2;Temp;Humidity;BMP_temperature;BMP_pressure;BME280_temperature;BME280_humidity;BME280_pressure;Samples;Min_cycle;Max_cycle;Signal;HPM_P1;HPM_P2
2022/11/06 00:01:53;;;;;;;31.95;21.60;;;;;;;7.99;71.71;101462.45;1694265;84;21170;-75
2022/11/06 00:04:20;;;;;;;32.20;20.92;;;;;;;8.02;71.65;101460.69;1690276;84;21043;-75
2022/11/06 00:06:47;;;;;;;29.37;20.82;;;;;;;7.99;71.57;101459.80;1689590;82;21107;-75
2022/11/06 00:09:18;;;;;;;30.32;21.12;;;;;;;7.97;71.54;101464.02;1699836;82;21315;-74
2022/11/06 00:11:47;;;;;;;29.75;20.10;;;;;;;7.99;71.55;101467.78;1697192;82;21082;-75
2022/11/06 00:14:15;;;;;;;29.98;20.37;;;;;;;8.05;71.52;101466.91;1701560;84;21083;-77
2022/11/06 00:16:44;;;;;;;31.12;20.48;;;;;;;8.03;71.46;101462.83;1697556;82;21039;-76
2022/11/06 00:19:11;;;;;;;28.10;20.12;;;;;;;8.03;71.45;101461.50;1693759;82;21456;-76
2022/11/06 00:21:37;;;;;;;28.42;19.50;;;;;;;8.01;71.39;101456.94;1682545;84;21524;-75
2022/11/06 00:24:05;;;;;;;30.00;19.70;;;;;;;7.98;71.38;101460.84;1703392;84;21082;-75
2022/11/06 00:26:33;;;;;;;28.90;20.10;;;;;;;7.97;71.36;101455.23;1703691;82;21028;-75
2022/11/06 00:28:59;;;;;;;29.50;19.45;;;;;;;7.96;71.35;101457.56;1704662;82;21036;-74
2022/11/06 00:31:29;;;;;;;32.53;20.62;;;;;;;7.97;71.36;101457.89;1704108;82;21012;-75
2022/11/06 00:33:59;;;;;;;31.87;19.77;;;;;;;7.99;71.40;101454.47;1702547;82;21111;-74
2022/11/06 00:36:31;;;;;;;28.02;19.57;;;;;;;8.03;71.34;101450.37;1675913;85;21124;-74
2022/11/06 00:38:58;;;;;;;;;;;;;;;8.03;71.25;101454.36;1664634;84;21059;-74
2022/11/06 00:41:26;;;;;;;29.95;19.52;;;;;;;8.01;71.13;101451.09;1662660;86;20265;-74
2022/11/06 00:43:57;;;;;;;32.10;20.95;;;;;;;7.96;71.12;101446.92;1688069;82;21118;-74
2022/11/06 00:46:23;;;;;;;28.05;18.70;;;;;;;7.94;71.14;101450.34;1701281;84;21134;-74
2022/11/06 00:48:50;;;;;;;28.65;19.35;;;;;;;7.91;71.11;101444.13;1704590;84;21700;-74
2022/11/06 00:51:20;;;;;;;27.20;17.45;;;;;;;7.89;71.16;101448.83;1675616;84;21000;-74
2022/11/06 00:53:58;;;;;;;29.55;19.37;;;;;;;7.91;71.18;101450.25;1701038;82;21071;-73
2022/11/06 00:56:25;;;;;;;31.25;19.80;;;;;;;7.91;71.17;101446.78;1696370;82;20984;-74
2022/11/06 00:58:52;;;;;;;29.45;18.62;;;;;;;7.92;71.19;101443.89;1701618;82;21326;-75
2022/11/06 01:01:29;;;;;;;26.27;17.50;;;;;;;7.94;71.16;101439.18;1693875;82;21059;-74
2022/11/06 01:04:05;;;;;;;30.23;18.67;;;;;;;7.98;71.08;101444.88;1695513;82;21521;-74
2022/11/06 01:06:38;;;;;;;29.07;18.92;;;;;;;7.96;71.01;101448.26;1681209;82;21040;-74
2022/11/06 01:09:05;;;;;;;27.80;18.87;;;;;;;7.94;70.91;101446.34;1679304;82;21075;-74
2022/11/06 01:11:37;;;;;;;30.88;19.23;;;;;;;7.89;70.82;101443.52;1695941;82;21138;-75
2022/11/06 01:14:06;;;;;;;27.82;19.98;;;;;;;7.88;70.84;101445.88;1657395;85;21065;-74
2022/11/06 01:16:34;;;;;;;28.17;17.65;;;;;;;7.88;70.82;101444.03;1665447;86;21016;-75
2022/11/06 01:19:00;;;;;;;28.32;19.55;;;;;;;7.88;70.83;101443.22;1691215;82;21056;-75
2022/11/06 01:21:36;;;;;;;27.60;18.42;;;;;;;7.86;70.82;101449.27;1683867;82;21043;-75
2022/11/06 01:24:06;;;;;;;30.20;19.77;;;;;;;7.87;70.81;101441.60;1676787;85;21073;-74
2022/11/06 01:26:35;;;;;;;28.73;18.32;;;;;;;7.87;70.77;101441.60;1678567;82;21609;-75
2022/11/06 01:29:01;;;;;;;29.77;18.85;;;;;;;7.88;70.73;101448.55;1661502;82;21138;-74
2022/11/06 01:31:30;;;;;;;27.22;18.32;;;;;;;7.84;70.64;101448.69;1705398;82;20973;-74
2022/11/06 01:33:58;;;;;;;30.02;19.40;;;;;;;7.82;70.70;101442.75;1685721;82;21023;-74
2022/11/06 01:36:25;;;;;;;29.20;17.67;;;;;;;7.80;70.69;101440.33;1699740;84;21747;-74
2022/11/06 01:38:54;;;;;;;31.33;18.98;;;;;;;7.78;70.69;101440.23;1693704;84;21052;-75
2022/11/06 01:41:25;;;;;;;28.98;18.98;;;;;;;7.75;70.72;101442.81;1676332;84;21157;-74
2022/11/06 01:44:08;;;;;;;29.02;17.65;;;;;;;7.75;70.74;101444.95;1665914;86;21019;-74
2022/11/06 01:46:35;;;;;;;27.25;16.95;;;;;;;7.78;70.79;101448.22;1682069;84;21598;-74
2022/11/06 01:49:13;;;;;;;27.27;18.35;;;;;;;7.80;70.80;101446.98;1677025;84;21144;-74
2022/11/06 01:51:48;;;;;;;28.02;18.15;;;;;;;7.82;70.77;101444.89;1702890;84;21452;-74
2022/11/06 01:54:21;;;;;;;28.40;17.90;;;;;;;7.84;70.77;101453.48;1704867;84;21051;-74
2022/11/06 01:56:50;;;;;;;29.92;18.50;;;;;;;7.86;70.76;101445.27;1703023;84;21041;-74
2022/11/06 01:59:20;;;;;;;26.52;16.17;;;;;;;7.86;70.71;101447.93;1705215;84;21004;-74
2022/11/06 02:01:47;;;;;;;28.67;18.27;;;;;;;7.84;70.71;101446.02;1675375;84;21243;-75
2022/11/06 02:04:26;;;;;;;28.83;18.62;;;;;;;7.85;70.70;101443.66;1694430;82;21119;-74
2022/11/06 02:06:52;;;;;;;29.87;18.87;;;;;;;7.84;70.71;101442.03;1648603;87;21089;-74
2022/11/06 02:09:21;;;;;;;28.45;18.02;;;;;;;7.90;70.72;101447.83;1661475;86;21138;-73
2022/11/06 02:12:18;;;;;;;26.82;17.17;;;;;;;7.90;70.65;101445.16;1704296;84;20976;-73
2022/11/06 02:15:21;;;;;;;29.42;18.42;;;;;;;7.92;70.67;101449.73;1625163;86;21248;-74
2022/11/06 02:17:57;;;;;;;29.92;17.87;;;;;;;7.93;70.65;101449.53;1706785;82;21090;-74
2022/11/06 02:20:39;;;;;;;28.23;18.85;;;;;;;7.94;70.61;101450.34;1698919;84;21015;-75
2022/11/06 02:23:26;;;;;;;28.40;18.25;;;;;;;7.96;70.62;101453.58;1702232;83;21192;-73
2022/11/06 02:26:35;;;;;;;26.48;17.87;;;;;;;8.01;70.60;101456.94;1707280;82;21084;-74
2022/11/06 02:29:10;;;;;;;28.85;17.80;;;;;;;8.04;70.55;101454.66;1710205;84;21114;-74
2022/11/06 02:31:38;;;;;;;26.65;17.73;;;;;;;8.05;70.51;101457.59;1690895;82;21107;-73
2022/11/06 02:34:08;;;;;;;25.85;16.62;;;;;;;8.05;70.43;101449.62;1685690;82;21075;-74
2022/11/06 02:36:39;;;;;;;27.77;17.37;;;;;;;8.04;70.46;101453.32;1707653;82;21648;-74
2022/11/06 02:39:12;;;;;;;30.60;18.40;;;;;;;8.01;70.52;101455.08;1661840;85;21124;-74
2022/11/06 02:41:42;;;;;;;28.35;17.90;;;;;;;7.99;70.48;101461.13;1663969;86;21886;-74
2022/11/06 02:44:13;;;;;;;26.33;17.40;;;;;;;7.97;70.51;101455.23;1704993;84;20964;-74
2022/11/06 02:46:53;;;;;;;25.10;16.23;;;;;;;7.96;70.55;101451.76;1688826;82;20981;-72
2022/11/06 02:49:38;;;;;;;25.68;16.70;;;;;;;7.97;70.61;101447.25;1691386;83;21587;-72
2022/11/06 02:52:15;;;;;;;30.57;18.55;;;;;;;7.94;70.66;101439.70;1683141;82;21039;-73
2022/11/06 02:54:47;;;;;;;29.07;18.02;;;;;;;7.91;70.72;101442.79;1684198;84;22395;-73
2022/11/06 02:57:14;;;;;;;28.83;17.50;;;;;;;7.90;70.80;101445.97;1696451;84;21019;-72
2022/11/06 02:59:51;;;;;;;30.17;18.23;;;;;;;7.89;70.86;101451.49;1697736;84;21076;-74
2022/11/06 03:02:23;;;;;;;24.40;16.62;;;;;;;7.87;70.94;101449.06;1704025;82;21065;-74
2022/11/06 03:05:07;;;;;;;27.35;17.82;;;;;;;7.88;70.96;101440.56;1703739;82;21067;-75
2022/11/06 03:07:51;;;;;;;29.40;18.25;;;;;;;7.88;71.03;101442.70;1679347;82;22367;-74
2022/11/06 03:10:17;;;;;;;27.52;17.05;;;;;;;7.86;71.08;101448.74;1685093;82;21122;-75
2022/11/06 03:13:14;;;;;;;27.60;17.37;;;;;;;7.86;71.12;101448.74;1705213;84;21008;-74
2022/11/06 03:15:56;;;;;;;31.17;18.15;;;;;;;7.87;71.16;101448.25;1687375;84;21055;-76
2022/11/06 03:18:30;;;;;;;29.15;17.95;;;;;;;7.87;71.16;101450.91;1676828;85;21509;-76
2022/11/06 03:21:21;;;;;;;29.90;19.55;;;;;;;7.84;71.17;101451.34;1679263;84;21503;-75
2022/11/06 03:24:10;;;;;;;32.90;19.50;;;;;;;7.84;71.23;101449.50;1647445;87;20992;-75
2022/11/06 03:26:41;;;;;;;33.45;19.32;;;;;;;7.88;71.28;101445.36;1613720;88;21184;-75
2022/11/06 03:29:22;;;;;;;29.40;18.70;;;;;;;7.92;71.30;101444.41;1634717;87;21185;-74
2022/11/06 03:31:57;;;;;;;29.18;18.62;;;;;;;7.92;71.25;101439.90;1685246;82;21000;-74
2022/11/06 03:34:34;;;;;;;30.30;18.23;;;;;;;7.91;71.24;101445.45;1677441;84;21248;-75
2022/11/06 03:37:08;;;;;;;35.17;20.20;;;;;;;7.88;71.27;101439.23;1697504;84;21072;-74
2022/11/06 03:39:41;;;;;;;31.73;18.73;;;;;;;7.85;71.36;101445.80;1700375;82;21076;-75
2022/11/06 03:42:12;;;;;;;32.38;19.67;;;;;;;7.86;71.42;101446.08;1700805;83;20973;-73
2022/11/06 03:44:45;;;;;;;28.50;17.77;;;;;;;7.90;71.45;101453.14;1689564;82;20981;-74
2022/11/06 03:47:14;;;;;;;;;;;;;;;7.90;71.42;101449.96;1707012;84;21152;-75
2022/11/06 03:49:47;;;;;;;32.30;18.37;;;;;;;7.90;71.41;101451.81;1702754;84;20150;-74
2022/11/06 03:52:23;;;;;;;31.00;19.23;;;;;;;7.87;71.48;101446.41;1694479;82;21127;-74
2022/11/06 03:54:57;;;;;;;32.08;18.90;;;;;;;7.87;71.52;101443.74;1691325;84;20996;-74
2022/11/06 03:57:42;;;;;;;30.75;18.37;;;;;;;7.89;71.55;101440.85;1699988;83;20981;-75
2022/11/06 04:00:10;;;;;;;35.20;20.27;;;;;;;7.90;71.56;101444.64;1702837;82;21203;-73
2022/11/06 04:02:46;;;;;;;35.92;20.35;;;;;;;7.93;71.58;101442.88;1694685;83;21103;-75
2022/11/06 04:05:22;;;;;;;29.40;17.77;;;;;;;7.98;71.56;101447.53;1705048;84;21528;-74
2022/11/06 04:16:09;;;;;;;36.28;20.52;;;;;;;7.91;71.50;101434.29;1685139;82;21048;-75
2022/11/06 04:18:37;;;;;;;34.73;19.20;;;;;;;7.85;71.57;101432.50;1672713;85;21104;-74
2022/11/06 04:21:23;;;;;;;31.05;17.42;;;;;;;7.82;71.67;101436.11;1662466;84;21063;-74
2022/11/06 04:27:31;;;;;;;35.28;20.60;;;;;;;7.74;71.88;101427.89;1704791;82;21179;-74
2022/11/06 04:30:10;;;;;;;37.53;20.80;;;;;;;7.70;72.04;101416.87;1702741;82;21090;-74
2022/11/06 04:32:45;;;;;;;38.00;21.15;;;;;;;7.67;72.16;101420.48;1703940;84;21111;-74
2022/11/06 04:35:24;;;;;;;35.80;20.10;;;;;;;7.64;72.28;101420.39;1667537;85;21010;-75
2022/11/06 04:38:18;;;;;;;38.42;21.27;;;;;;;7.61;72.40;101420.83;1650209;86;21548;-74
2022/11/06 04:41:06;;;;;;;39.08;21.12;;;;;;;7.61;72.49;101430.13;1677742;84;21164;-75
2022/11/06 04:43:49;;;;;;;42.05;22.48;;;;;;;7.63;72.55;101432.04;1676536;85;21082;-74
2022/11/06 04:46:23;;;;;;;41.73;21.70;;;;;;;7.68;72.60;101436.73;1648804;85;21104;-75
2022/11/06 04:48:49;;;;;;;40.45;21.68;;;;;;;7.72;72.60;101441.39;1656090;84;21720;-74
2022/11/06 04:51:20;;;;;;;40.63;22.00;;;;;;;7.79;72.55;101444.52;1679107;84;20992;-73
2022/11/06 04:53:48;;;;;;;42.25;22.62;;;;;;;7.80;72.50;101443.48;1699604;84;21100;-74
2022/11/06 04:56:23;;;;;;;42.60;22.13;;;;;;;7.81;72.43;101439.81;1697342;82;20961;-74
2022/11/06 04:58:50;;;;;;;41.33;21.75;;;;;;;7.78;72.42;101446.89;1697702;84;21054;-74
2022/11/06 05:01:17;;;;;;;40.33;21.70;;;;;;;7.79;72.49;101449.84;1701789;82;21040;-74
2022/11/06 05:03:44;;;;;;;45.10;23.32;;;;;;;7.79;72.46;101447.17;1699465;82;21028;-74
2022/11/06 05:06:11;;;;;;;43.13;22.93;;;;;;;7.81;72.45;101452.58;1694860;82;21677;-75
2022/11/06 05:08:38;;;;;;;41.55;22.67;;;;;;;7.80;72.44;101452.78;1703367;82;21024;-73
2022/11/06 05:11:05;;;;;;;42.03;22.20;;;;;;;7.81;72.42;101453.11;1703981;84;21028;-74
2022/11/06 05:13:32;;;;;;;39.55;21.37;;;;;;;7.78;72.45;101450.36;1681272;84;21500;-74
2022/11/06 05:16:00;;;;;;;41.40;22.60;;;;;;;7.77;72.48;101453.25;1691133;82;21051;-72
2022/11/06 05:18:28;;;;;;;38.38;20.55;;;;;;;7.74;72.50;101453.16;1704156;84;21040;-73
2022/11/06 05:23:46;;;;;;;45.63;23.67;;;;;;;7.70;72.65;101455.92;1702287;84;21114;-74
2022/11/06 05:26:12;;;;;;;43.08;22.27;;;;;;;7.70;72.75;101456.77;1702092;84;21127;-74
2022/11/06 05:28:39;;;;;;;45.90;23.38;;;;;;;7.74;72.79;101460.61;1702083;84;20989;-74
2022/11/06 05:31:05;;;;;;;42.95;22.52;;;;;;;7.81;72.82;101460.56;1698552;83;21056;-74
2022/11/06 05:33:32;;;;;;;41.28;21.90;;;;;;;7.87;72.80;101465.02;1696428;84;21544;-75
2022/11/06 05:36:03;;;;;;;43.95;21.95;;;;;;;7.88;72.71;101465.83;1701710;84;21012;-74
2022/11/06 05:38:30;;;;;;;42.30;23.22;;;;;;;7.86;72.62;101469.21;1702640;84;21127;-75
2022/11/06 05:40:57;;;;;;;43.65;22.70;;;;;;;7.87;72.69;101466.88;1701106;83;21021;-75
2022/11/06 05:43:24;;;;;;;39.55;19.80;;;;;;;7.87;72.64;101463.69;1701933;84;21275;-74
2022/11/06 05:45:54;;;;;;;39.75;21.48;;;;;;;7.88;72.61;101467.16;1702138;84;21032;-74
2022/11/06 05:48:20;;;;;;;39.18;19.67;;;;;;;7.83;72.58;101470.97;1704844;84;21044;-75
2022/11/06 05:50:48;;;;;;;36.08;19.42;;;;;;;7.80;72.63;101478.05;1679892;84;21016;-74
2022/11/06 05:53:15;;;;;;;34.13;18.67;;;;;;;7.78;72.67;101480.13;1704885;84;21044;-74
2022/11/06 05:55:46;;;;;;;38.15;20.88;;;;;;;7.74;72.68;101479.23;1704896;84;21273;-74
2022/11/06 05:58:13;;;;;;;31.37;17.73;;;;;;;7.74;72.71;101477.90;1698733;84;21550;-74
2022/11/06 06:00:40;;;;;;;35.68;19.50;;;;;;;7.76;72.79;101480.33;1679494;84;21103;-76
2022/11/06 06:03:06;;;;;;;38.42;20.08;;;;;;;7.77;72.70;101483.31;1702521;84;21515;-75
2022/11/06 06:05:33;;;;;;;35.78;18.30;;;;;;;7.76;72.69;101489.64;1705005;84;21532;-74
2022/11/06 06:07:59;;;;;;;38.40;20.12;;;;;;;7.75;72.66;101491.48;1702964;82;21158;-75
2022/11/06 06:10:26;;;;;;;33.83;17.55;;;;;;;7.72;72.67;101495.09;1687378;82;21036;-75
2022/11/06 06:12:53;;;;;;;28.73;16.80;;;;;;;7.69;72.71;101504.31;1700323;84;21016;-75
2022/11/06 06:15:20;;;;;;;32.60;18.40;;;;;;;7.67;72.75;101494.42;1698278;82;21016;-76
2022/11/06 06:17:47;;;;;;;34.33;17.92;;;;;;;7.66;72.76;101499.94;1692067;82;21685;-75
2022/11/06 06:20:15;;;;;;;35.00;18.50;;;;;;;7.65;72.80;101499.64;1681648;84;21615;-76
2022/11/06 06:22:43;;;;;;;33.13;18.37;;;;;;;7.62;72.80;101508.86;1703970;84;21091;-75
2022/11/06 06:25:09;;;;;;;33.38;16.25;;;;;;;7.62;72.83;101506.72;1697033;82;21079;-75
2022/11/06 06:27:36;;;;;;;31.80;16.55;;;;;;;7.62;72.89;101506.20;1688726;84;21115;-76
2022/11/06 06:30:03;;;;;;;35.48;18.67;;;;;;;7.63;72.87;101501.69;1701618;82;21064;-73
2022/11/06 06:32:31;;;;;;;33.63;17.27;;;;;;;7.59;72.88;101500.49;1710711;82;21623;-73
2022/11/06 06:34:58;;;;;;;33.85;17.60;;;;;;;7.57;73.06;101507.37;1714763;82;21658;-73
2022/11/06 06:37:25;;;;;;;34.23;18.48;;;;;;;7.60;73.07;101512.75;1711202;82;21048;-74
2022/11/06 06:39:53;;;;;;;34.95;19.57;;;;;;;7.59;73.13;101517.26;1687738;84;21766;-74
2022/11/06 06:42:21;;;;;;;34.90;18.50;;;;;;;7.57;73.21;101511.84;1687730;84;21061;-73
2022/11/06 06:44:48;;;;;;;35.17;19.42;;;;;;;7.61;73.26;101515.21;1688116;84;21062;-74
2022/11/06 06:47:15;;;;;;;35.17;18.42;;;;;;;7.61;73.23;101512.55;1697791;84;21041;-74
2022/11/06 06:49:43;;;;;;;35.28;19.50;;;;;;;7.62;73.31;101512.84;1693725;82;21129;-73
2022/11/06 06:52:11;;;;;;;31.55;16.80;;;;;;;7.65;73.35;101515.59;1699101;82;21070;-74
2022/11/06 06:54:37;;;;;;;35.50;18.92;;;;;;;7.69;73.31;101516.27;1696160;84;21098;-73
2022/11/06 06:57:04;;;;;;;33.80;19.60;;;;;;;7.69;73.27;101520.27;1700367;82;21980;-73
2022/11/06 06:59:30;;;;;;;36.15;18.75;;;;;;;7.72;73.25;101520.35;1675517;85;20986;-73
2022/11/06 07:01:57;;;;;;;34.13;18.75;;;;;;;7.72;73.23;101523.02;1652865;86;21071;-75
2022/11/06 07:04:24;;;;;;;34.25;18.92;;;;;;;7.75;73.29;101519.93;1679604;84;21864;-74
2022/11/06 07:06:54;;;;;;;30.48;17.05;;;;;;;7.78;73.24;101512.86;1703915;84;21126;-75
2022/11/06 07:09:22;;;;;;;39.92;18.77;;;;;;;7.84;73.25;101513.84;1679285;84;21945;-75
2022/11/06 07:11:50;;;;;;;32.38;18.05;;;;;;;7.88;73.25;101516.38;1648793;85;21070;-75
2022/11/06 07:14:17;;;;;;;29.95;17.10;;;;;;;7.94;73.23;101512.34;1639988;84;21095;-74
2022/11/06 07:16:44;;;;;;;31.95;16.97;;;;;;;8.00;73.10;101519.97;1675942;85;21073;-76
2022/11/06 07:19:11;;;;;;;34.75;17.60;;;;;;;8.01;73.00;101512.28;1677493;84;21020;-75
2022/11/06 07:21:38;;;;;;;28.77;16.25;;;;;;;8.06;72.96;101516.94;1650143;85;21285;-76
2022/11/06 07:24:05;;;;;;;28.07;15.78;;;;;;;8.15;72.92;101518.31;1666234;86;21126;-74
2022/11/06 07:26:32;;;;;;;30.37;15.95;;;;;;;8.17;72.73;101517.07;1705200;84;21070;-75
2022/11/06 07:28:59;;;;;;;31.75;17.23;;;;;;;8.21;72.67;101520.92;1688210;84;21051;-75
2022/11/06 07:31:26;;;;;;;30.40;16.93;;;;;;;8.25;72.54;101517.83;1698022;82;21047;-75
2022/11/06 07:33:53;;;;;;;30.92;16.48;;;;;;;8.33;72.49;101522.37;1705175;82;22269;-74
2022/11/06 07:36:20;;;;;;;29.05;15.63;;;;;;;8.36;72.26;101519.80;1703515;84;21017;-75
2022/11/06 07:38:47;;;;;;;29.70;16.50;;;;;;;8.45;72.23;101522.48;1694106;82;21044;-74
2022/11/06 07:41:14;;;;;;;32.88;17.07;;;;;;;8.50;72.02;101522.66;1705439;84;21091;-75
2022/11/06 07:43:41;;;;;;;28.12;15.80;;;;;;;8.57;71.96;101516.74;1704909;84;21016;-74
2022/11/06 07:46:11;;;;;;;31.62;16.70;;;;;;;8.65;71.82;101517.80;1696257;82;21551;-74
2022/11/06 07:48:38;;;;;;;29.42;15.70;;;;;;;8.73;71.70;101521.20;1676920;85;21097;-75
2022/11/06 07:51:07;;;;;;;28.30;15.50;;;;;;;8.80;71.51;101523.28;1691780;84;21587;-78
2022/11/06 07:53:35;;;;;;;32.28;16.57;;;;;;;8.84;71.35;101525.80;1704688;84;21048;-76
2022/11/06 07:56:04;;;;;;;26.80;15.15;;;;;;;8.90;71.24;101525.72;1679755;84;21133;-75
2022/11/06 07:58:32;;;;;;;28.62;15.13;;;;;;;8.96;71.05;101524.55;1676778;85;22168;-74
2022/11/06 08:01:00;;;;;;;27.77;15.20;;;;;;;9.00;70.86;101525.73;1666829;85;21017;-74
2022/11/06 08:03:31;;;;;;;32.33;17.05;;;;;;;9.09;70.74;101531.06;1665096;84;21538;-74
2022/11/06 08:05:57;;;;;;;25.50;14.75;;;;;;;9.13;70.51;101533.05;1681625;82;21105;-74
2022/11/06 08:08:24;;;;;;;23.92;13.93;;;;;;;9.15;70.22;101528.31;1705231;84;21100;-74
2022/11/06 08:10:52;;;;;;;29.57;15.78;;;;;;;9.16;69.96;101527.80;1701501;82;21094;-73
2022/11/06 08:13:19;;;;;;;27.58;14.18;;;;;;;9.18;69.83;101514.23;1695992;82;21122;-73
2022/11/06 08:15:46;;;;;;;25.27;14.95;;;;;;;9.19;69.68;101521.20;1676891;85;21028;-75
2022/11/06 08:18:13;;;;;;;26.42;15.35;;;;;;;9.20;69.52;101528.16;1676680;85;21012;-74
2022/11/06 08:20:41;;;;;;;29.42;14.98;;;;;;;9.23;69.46;101527.71;1653709;85;21122;-75
2022/11/06 08:23:10;;;;;;;27.02;15.00;;;;;;;9.27;69.36;101534.22;1676912;84;21757;-76
2022/11/06 08:25:37;;;;;;;27.45;15.65;;;;;;;9.22;68.98;101534.09;1688387;82;21431;-75
2022/11/06 08:28:06;;;;;;;28.05;15.65;;;;;;;9.14;68.91;101536.52;1675419;85;21128;-75
2022/11/06 08:30:34;;;;;;;27.15;15.28;;;;;;;9.12;68.95;101535.42;1665374;84;20996;-76
2022/11/06 08:33:03;;;;;;;27.10;14.50;;;;;;;9.14;68.98;101543.98;1700056;82;21040;-76
2022/11/06 08:35:30;;;;;;;26.97;13.43;;;;;;;9.19;69.06;101546.00;1705265;82;21095;-73
2022/11/06 08:37:57;;;;;;;25.25;14.35;;;;;;;9.22;68.86;101542.90;1705087;84;21071;-74
2022/11/06 08:40:24;;;;;;;27.48;15.50;;;;;;;9.22;68.79;101543.42;1697782;84;21025;-73
2022/11/06 08:42:50;;;;;;;23.87;14.23;;;;;;;9.23;68.77;101545.04;1676451;85;21095;-73
2022/11/06 08:45:17;;;;;;;24.75;13.65;;;;;;;9.21;68.57;101548.44;1678510;82;21119;-75
2022/11/06 08:47:43;;;;;;;27.07;14.90;;;;;;;9.21;68.55;101548.44;1676864;85;21099;-74
2022/11/06 08:50:11;;;;;;;27.75;16.25;;;;;;;9.16;68.49;101547.26;1676989;84;20980;-75
2022/11/06 08:52:38;;;;;;;24.77;14.33;;;;;;;9.16;68.55;101551.26;1699549;84;21019;-74
2022/11/06 08:55:06;;;;;;;26.30;15.53;;;;;;;9.20;68.57;101551.63;1703743;84;21040;-74
2022/11/06 08:57:33;;;;;;;27.10;15.25;;;;;;;9.19;68.45;101549.20;1703327;82;21008;-74
2022/11/06 09:00:00;;;;;;;27.52;16.15;;;;;;;9.15;68.40;101547.50;1690796;82;21094;-74
2022/11/06 09:02:27;;;;;;;29.50;16.07;;;;;;;9.10;68.44;101556.14;1703988;84;21070;-76
2022/11/06 09:04:54;;;;;;;30.62;15.72;;;;;;;9.11;68.54;101553.80;1680117;84;21551;-75
2022/11/06 09:07:20;;;;;;;27.73;14.83;;;;;;;9.16;68.61;101557.11;1677634;84;21012;-75
2022/11/06 09:09:47;;;;;;;27.52;15.72;;;;;;;9.18;68.47;101556.38;1698835;82;21514;-75
2022/11/06 09:12:14;;;;;;;30.55;16.32;;;;;;;9.14;68.43;101555.17;1705246;84;21986;-74
2022/11/06 09:14:40;;;;;;;27.30;15.95;;;;;;;9.14;68.52;101561.31;1705198;84;21075;-78
2022/11/06 09:17:07;;;;;;;31.35;16.27;;;;;;;9.16;68.51;101554.45;1705136;84;21020;-75
2022/11/06 09:19:34;;;;;;;28.10;16.65;;;;;;;9.16;68.48;101555.25;1675940;85;21053;-75
2022/11/06 09:22:01;;;;;;;26.20;15.23;;;;;;;9.14;68.42;101557.31;1666155;86;21031;-75
2022/11/06 09:24:28;;;;;;;29.80;16.62;;;;;;;9.11;68.45;101552.95;1705333;84;21083;-76
2022/11/06 09:26:55;;;;;;;31.68;17.00;;;;;;;9.01;68.53;101547.33;1679955;84;21331;-75
2022/11/06 09:29:22;;;;;;;33.08;17.48;;;;;;;8.96;68.69;101549.86;1677211;85;21080;-74
2022/11/06 09:31:50;;;;;;;30.30;17.40;;;;;;;8.99;68.86;101550.75;1674754;85;21100;-74
2022/11/06 09:34:17;;;;;;;31.12;17.73;;;;;;;8.96;68.83;101549.34;1666114;86;21562;-75
2022/11/06 09:36:44;;;;;;;34.90;18.02;;;;;;;8.93;68.93;101551.92;1686739;82;21206;-74
2022/11/06 09:39:11;;;;;;;28.73;15.65;;;;;;;8.99;69.07;101548.09;1648731;87;21025;-74
2022/11/06 09:41:56;;;;;;;33.13;18.02;;;;;;;9.03;69.08;101548.74;1640615;84;21261;-75
2022/11/06 09:44:40;;;;;;;27.95;15.45;;;;;;;9.00;69.04;101549.19;1652514;85;21112;-74
2022/11/06 09:47:19;;;;;;;31.97;17.17;;;;;;;9.00;69.14;101542.52;1694982;82;21100;-76
2022/11/06 09:49:53;;;;;;;28.65;17.07;;;;;;;8.94;69.16;101548.73;1704164;82;21899;-75
2022/11/06 09:52:36;;;;;;;33.25;17.90;;;;;;;8.87;69.28;101548.00;1699767;84;21032;-74
2022/11/06 09:55:12;;;;;;;33.92;18.73;;;;;;;8.83;69.42;101548.15;1678369;82;21103;-73
2022/11/06 09:57:54;;;;;;;34.48;19.02;;;;;;;8.85;69.53;101543.39;1679787;84;21035;-78
2022/11/06 10:00:21;;;;;;;;;;;;;;;8.87;69.62;101550.66;1706920;82;21068;-76
2022/11/06 10:03:19;;;;;;;32.78;18.17;;;;;;;8.95;69.67;101546.88;1681851;83;20124;-74
2022/11/06 10:05:46;;;;;;;33.98;19.42;;;;;;;8.98;69.62;101546.44;1654601;85;21061;-75
2022/11/06 10:08:27;;;;;;;38.40;19.62;;;;;;;8.99;69.63;101542.23;1664552;84;21086;-75
2022/11/06 10:11:19;;;;;;;31.80;18.32;;;;;;;9.07;69.64;101545.11;1691316;82;20988;-75
2022/11/06 10:13:58;;;;;;;36.35;19.52;;;;;;;9.11;69.51;101541.80;1701126;82;21098;-76
2022/11/06 10:17:03;;;;;;;35.70;20.70;;;;;;;9.12;69.45;101538.09;1700584;82;21913;-76
2022/11/06 10:19:38;;;;;;;30.68;17.87;;;;;;;9.12;69.31;101539.94;1697182;84;21012;-74
2022/11/06 10:22:18;;;;;;;33.63;19.65;;;;;;;9.13;69.32;101535.71;1632905;86;21049;-76
2022/11/06 10:25:20;;;;;;;33.15;18.92;;;;;;;9.15;69.31;101536.83;1639107;87;21066;-76
2022/11/06 10:28:12;;;;;;;31.45;17.32;;;;;;;9.18;69.25;101529.73;1676954;85;21531;-75
2022/11/06 10:31:05;;;;;;;34.08;19.27;;;;;;;9.16;69.17;101531.27;1704098;84;21829;-75
2022/11/06 10:33:50;;;;;;;35.60;20.02;;;;;;;9.10;69.24;101526.02;1704504;84;21629;-74
2022/11/06 10:36:30;;;;;;;30.70;18.73;;;;;;;9.11;69.29;101525.81;1704938;84;21506;-75
2022/11/06 10:38:57;;;;;;;29.52;18.35;;;;;;;9.17;69.30;101525.41;1681645;84;21082;-75
2022/11/06 10:41:28;;;;;;;31.30;19.23;;;;;;;9.26;69.34;101516.08;1677055;85;21019;-74
2022/11/06 10:44:16;;;;;;;30.77;18.00;;;;;;;9.34;69.26;101513.61;1677082;85;21108;-75
2022/11/06 10:46:48;;;;;;;35.78;20.75;;;;;;;9.41;69.04;101510.36;1621448;87;21004;-74
2022/11/06 10:49:29;;;;;;;37.10;20.55;;;;;;;9.43;68.94;101513.60;1682041;85;21051;-76
2022/11/06 10:52:19;;;;;;;37.00;21.35;;;;;;;9.46;68.79;101502.48;1654574;85;21133;-75
2022/11/06 10:55:26;;;;;;;35.52;21.10;;;;;;;9.46;68.60;101505.15;1639055;87;21070;-75
2022/11/06 10:58:19;;;;;;;33.55;20.40;;;;;;;9.42;68.52;101508.51;1698534;84;21241;-74
2022/11/06 11:00:46;;;;;;;;;;;;;;;9.37;68.38;101495.83;1707620;84;21048;-73
2022/11/06 11:03:25;;;;;;;33.00;19.87;;;;;;;9.36;68.53;101498.22;1705200;84;20174;-75
2022/11/06 11:05:54;;;;;;;31.42;18.30;;;;;;;9.38;68.54;101503.63;1697853;84;21519;-74
2022/11/06 11:08:36;;;;;;;28.27;18.20;;;;;;;9.36;68.60;101495.55;1705552;84;21507;-73
2022/11/06 11:11:17;;;;;;;31.10;19.42;;;;;;;9.33;68.68;101501.33;1705232;84;21161;-73
2022/11/06 11:14:05;;;;;;;33.33;19.57;;;;;;;9.28;68.79;101488.69;1697319;84;21016;-74
2022/11/06 11:16:34;;;;;;;32.95;19.85;;;;;;;9.32;68.93;101485.05;1672446;85;21093;-73
2022/11/06 11:19:36;;;;;;;32.25;19.85;;;;;;;9.39;68.95;101491.10;1666187;85;21504;-73
2022/11/06 11:22:18;;;;;;;35.85;19.42;;;;;;;9.40;68.74;101486.86;1703936;84;20972;-73
2022/11/06 11:25:04;;;;;;;36.40;20.27;;;;;;;9.38;68.61;101489.48;1701854;82;21257;-73
2022/11/06 11:27:39;;;;;;;31.68;19.85;;;;;;;9.30;68.67;101482.59;1703154;82;21425;-73
2022/11/06 11:30:25;;;;;;;30.70;18.50;;;;;;;9.31;68.77;101482.06;1704764;84;21090;-73
2022/11/06 11:32:56;;;;;;;28.12;17.67;;;;;;;9.33;68.75;101481.33;1684686;84;21067;-72
2022/11/06 11:35:29;;;;;;;30.20;18.35;;;;;;;9.28;68.69;101481.19;1648058;87;21596;-74
2022/11/06 11:38:12;;;;;;;29.23;17.80;;;;;;;9.20;68.80;101478.32;1639044;87;21123;-73
2022/11/06 11:40:39;;;;;;;29.40;18.23;;;;;;;9.16;68.91;101477.95;1693353;84;21029;-72
2022/11/06 11:43:27;;;;;;;30.72;19.32;;;;;;;9.11;68.86;101477.00;1676342;85;21765;-73
2022/11/06 11:46:09;;;;;;;28.35;18.30;;;;;;;9.10;69.00;101474.86;1675615;85;21031;-73
2022/11/06 11:48:56;;;;;;;29.37;17.98;;;;;;;9.13;69.11;101473.60;1676983;85;21119;-73
2022/11/06 11:51:31;;;;;;;31.93;19.37;;;;;;;9.13;69.10;101466.41;1648307;85;21891;-73
2022/11/06 11:54:06;;;;;;;28.85;18.52;;;;;;;9.05;69.19;101473.40;1639375;87;21142;-72
2022/11/06 11:56:33;;;;;;;27.42;17.80;;;;;;;8.99;69.30;101470.29;1694643;84;20972;-73
2022/11/06 11:59:02;;;;;;;27.07;17.05;;;;;;;8.91;69.43;101466.58;1695354;84;21080;-74